Terminal Aerodrome Forecast
Issued by NWS

Home | Current Version | Previous Version | Text Only | Print | Product List | Glossary On
Versions: 1 2 3 4 5 6 7 8 9 10 11 12 13 14 15 16
000
FTUS46 KOTX 250524
TAFCOE
TAF
KCOE 250524Z 2506/2606 14004KT P6SM SCT040 BKN100
     FM251900 23008G12KT P6SM VCSH SCT040 BKN060 BKN080
     FM260200 19006KT P6SM SCT050
      AMD LTD TO CLD AND VIS=

USA.gov is the U.S. government's official web portal to all federal, state and local government web resources and services.